createdAt,value
2022-12-11T00:00:30.989Z,14.85
2022-12-11T00:02:58.283Z,14.68
2022-12-11T00:05:25.599Z,15.02
2022-12-11T00:07:52.879Z,16.42
2022-12-11T00:10:20.106Z,14.17
2022-12-11T00:12:47.631Z,15.30
2022-12-11T00:15:14.828Z,15.63
2022-12-11T00:17:44.546Z,14.93
2022-12-11T00:20:12.206Z,15.80
2022-12-11T00:22:39.480Z,14.30
2022-12-11T00:25:06.913Z,15.18
2022-12-11T00:27:34.361Z,15.75
2022-12-11T00:30:01.973Z,14.45
2022-12-11T00:32:36.225Z,16.05
2022-12-11T00:35:05.479Z,14.57
2022-12-11T00:37:32.806Z,15.90
2022-12-11T00:40:00.231Z,16.20
2022-12-11T00:42:27.750Z,14.75
2022-12-11T00:44:56.453Z,15.40
2022-12-11T00:47:23.813Z,15.53
2022-12-11T00:49:51.046Z,16.23
2022-12-11T00:52:18.419Z,16.30
2022-12-11T00:54:46.208Z,15.63
2022-12-11T00:57:13.702Z,15.52
2022-12-11T00:59:41.169Z,17.07
2022-12-11T01:02:08.666Z,15.45
2022-12-11T01:04:36.750Z,15.95
2022-12-11T01:07:04.276Z,17.98
2022-12-11T01:09:50.092Z,16.83
2022-12-11T01:12:17.208Z,15.80
2022-12-11T01:14:44.351Z,16.10
2022-12-11T01:17:11.947Z,17.23
2022-12-11T01:19:39.121Z,18.00
2022-12-11T01:22:06.346Z,17.67
2022-12-11T01:24:34.009Z,16.43
2022-12-11T01:27:01.178Z,17.92
2022-12-11T01:29:28.425Z,17.52
2022-12-11T01:31:55.631Z,17.80
2022-12-11T01:34:22.876Z,17.63
2022-12-11T01:36:52.462Z,17.80
2022-12-11T01:39:19.648Z,17.42
2022-12-11T01:41:46.962Z,17.55
2022-12-11T01:44:17.164Z,15.30
2022-12-11T01:46:44.493Z,17.15
2022-12-11T01:49:13.382Z,16.63
2022-12-11T01:51:42.288Z,15.93
2022-12-11T01:54:12.491Z,15.85
2022-12-11T01:56:40.876Z,15.93
2022-12-11T01:59:08.757Z,16.38
2022-12-11T02:01:38.268Z,16.63
2022-12-11T02:04:05.767Z,15.32
2022-12-11T02:06:34.752Z,15.02
2022-12-11T02:09:02.406Z,13.93
2022-12-11T02:11:35.870Z,15.57
2022-12-11T02:14:25.031Z,15.47
2022-12-11T02:16:57.356Z,14.55
2022-12-11T02:19:27.826Z,14.13
2022-12-11T02:21:56.456Z,15.00
2022-12-11T02:24:24.018Z,15.43
2022-12-11T02:27:10.236Z,15.17
2022-12-11T02:30:07.086Z,14.73
2022-12-11T02:32:44.432Z,15.10
2022-12-11T02:35:26.384Z,14.60
2022-12-11T02:37:57.505Z,15.85
2022-12-11T02:40:27.258Z,16.17
2022-12-11T02:42:57.577Z,15.15
2022-12-11T02:45:25.258Z,15.02
2022-12-11T02:47:53.314Z,15.18
2022-12-11T02:50:22.006Z,14.35
2022-12-11T02:52:50.891Z,15.07
2022-12-11T02:55:18.686Z,14.38
2022-12-11T02:58:21.946Z,14.68
2022-12-11T03:00:49.442Z,15.13
2022-12-11T03:03:16.957Z,14.68
2022-12-11T03:05:46.520Z,14.97
2022-12-11T03:08:17.482Z,14.55
2022-12-11T03:10:45.321Z,14.00
2022-12-11T03:13:14.233Z,14.82
2022-12-11T03:15:47.358Z,10.35
2022-12-11T03:18:24.648Z,13.63
2022-12-11T03:20:59.255Z,14.77
2022-12-11T03:23:32.874Z,12.85
2022-12-11T03:26:02.290Z,13.48
2022-12-11T03:28:39.409Z,13.55
2022-12-11T03:31:10.528Z,12.37
2022-12-11T03:33:42.825Z,12.02
2022-12-11T03:36:20.372Z,13.02
2022-12-11T03:38:49.704Z,11.50
2022-12-11T03:41:18.963Z,12.75
2022-12-11T03:43:46.667Z,12.50
2022-12-11T03:46:14.638Z,12.57
2022-12-11T03:48:44.889Z,13.10
2022-12-11T03:51:12.172Z,12.73
2022-12-11T03:53:40.217Z,12.18
2022-12-11T03:56:09.404Z,11.97
2022-12-11T03:58:37.287Z,11.93
2022-12-11T04:01:04.858Z,12.38
2022-12-11T04:03:32.523Z,12.10
2022-12-11T04:05:59.974Z,11.77
2022-12-11T04:08:27.908Z,11.33
2022-12-11T04:11:13.998Z,11.65
2022-12-11T04:13:42.004Z,12.10
2022-12-11T04:16:09.528Z,10.48
2022-12-11T04:18:55.385Z,11.63
2022-12-11T04:21:41.138Z,11.93
2022-12-11T04:24:17.673Z,11.32
2022-12-11T04:26:46.192Z,10.43
2022-12-11T04:29:14.355Z,10.55
2022-12-11T04:31:41.879Z,11.35
2022-12-11T04:34:09.251Z,10.57
2022-12-11T04:36:36.628Z,10.55
2022-12-11T04:39:04.454Z,10.90
2022-12-11T04:41:32.082Z,10.40
2022-12-11T04:43:59.471Z,10.43
2022-12-11T04:46:27.042Z,10.23
2022-12-11T04:48:57.721Z,10.02
2022-12-11T04:51:25.208Z,10.40
2022-12-11T04:53:52.495Z,9.73
2022-12-11T04:56:20.080Z,9.55
2022-12-11T04:58:47.780Z,10.07
2022-12-11T05:01:17.836Z,10.38
2022-12-11T05:03:45.524Z,9.60
2022-12-11T05:06:13.331Z,9.77
2022-12-11T05:08:41.979Z,10.10
2022-12-11T05:11:11.189Z,8.70
2022-12-11T05:13:38.783Z,9.27
2022-12-11T05:16:06.949Z,9.95
2022-12-11T05:18:34.668Z,9.88
2022-12-11T05:21:03.316Z,10.02
2022-12-11T05:23:30.999Z,10.23
2022-12-11T05:26:02.850Z,9.30
2022-12-11T05:28:31.835Z,9.98
2022-12-11T05:31:00.209Z,9.45
2022-12-11T05:33:27.981Z,10.10
2022-12-11T05:35:55.310Z,9.97
2022-12-11T05:38:22.770Z,10.48
2022-12-11T05:40:57.907Z,10.10
2022-12-11T05:43:25.354Z,10.93
2022-12-11T05:45:52.605Z,10.05
2022-12-11T05:48:19.926Z,9.87
2022-12-11T05:50:56.862Z,9.63
2022-12-11T05:53:24.423Z,10.55
2022-12-11T05:55:51.717Z,9.95
2022-12-11T05:58:19.337Z,9.82
2022-12-11T06:00:46.734Z,9.80
2022-12-11T06:03:14.342Z,9.98
2022-12-11T06:05:42.690Z,10.00
2022-12-11T06:08:10.247Z,11.45
2022-12-11T06:10:37.594Z,11.60
2022-12-11T06:13:04.991Z,10.60
2022-12-11T06:15:33.317Z,10.43
2022-12-11T06:18:00.657Z,11.02
2022-12-11T06:20:27.974Z,11.52
2022-12-11T06:22:55.282Z,11.90
2022-12-11T06:25:22.575Z,10.40
2022-12-11T06:27:51.004Z,9.93
2022-12-11T06:30:18.411Z,11.00
2022-12-11T06:32:45.708Z,11.90
2022-12-11T06:35:13.316Z,11.55
2022-12-11T06:37:40.878Z,11.57
2022-12-11T06:40:09.180Z,11.80
2022-12-11T06:42:36.859Z,12.05
2022-12-11T06:45:04.314Z,11.57
2022-12-11T06:47:32.441Z,11.20
2022-12-11T06:49:59.864Z,11.00
2022-12-11T06:52:27.933Z,12.05
2022-12-11T06:54:55.870Z,11.60
2022-12-11T06:57:23.571Z,10.55
2022-12-11T06:59:50.745Z,11.48
2022-12-11T07:02:19.205Z,10.60
2022-12-11T07:04:49.323Z,10.13
2022-12-11T07:07:20.766Z,11.07
2022-12-11T07:09:48.221Z,10.00
2022-12-11T07:12:15.575Z,10.38
2022-12-11T07:14:42.929Z,11.30
2022-12-11T07:17:10.287Z,11.05
2022-12-11T07:19:37.678Z,11.45
2022-12-11T07:22:05.103Z,10.95
2022-12-11T07:24:32.657Z,11.07
2022-12-11T07:26:59.803Z,11.57
2022-12-11T07:29:27.059Z,10.85
2022-12-11T07:31:54.505Z,11.68
2022-12-11T07:34:21.979Z,11.70
2022-12-11T07:36:49.208Z,11.98
2022-12-11T07:39:16.314Z,11.43
2022-12-11T07:41:43.455Z,11.57
2022-12-11T07:44:10.632Z,12.20
2022-12-11T07:46:37.800Z,12.35
2022-12-11T07:49:06.116Z,12.25
2022-12-11T07:51:35.584Z,11.70
2022-12-11T07:54:04.189Z,11.77
2022-12-11T07:56:32.677Z,12.23
2022-12-11T07:59:04.928Z,9.95
2022-12-11T08:01:35.531Z,11.85
2022-12-11T08:04:03.473Z,10.77
2022-12-11T08:06:31.897Z,10.27
2022-12-11T08:09:00.427Z,10.20
2022-12-11T08:11:27.849Z,10.90
2022-12-11T08:13:55.077Z,9.98
2022-12-11T08:16:22.468Z,10.73
2022-12-11T08:18:49.920Z,11.25
2022-12-11T08:21:21.551Z,12.38
2022-12-11T08:23:49.140Z,10.43
2022-12-11T08:26:23.423Z,11.45
2022-12-11T08:28:50.548Z,10.43
2022-12-11T08:31:18.591Z,11.07
2022-12-11T08:33:46.399Z,11.27
2022-12-11T08:36:15.062Z,11.10
2022-12-11T08:38:42.356Z,11.25
2022-12-11T08:41:13.561Z,11.70
2022-12-11T08:43:41.044Z,10.23
2022-12-11T08:46:09.119Z,11.13
2022-12-11T08:48:37.513Z,11.35
2022-12-11T08:51:09.075Z,11.80
2022-12-11T08:53:36.493Z,9.90
2022-12-11T08:56:04.923Z,10.75
2022-12-11T08:58:32.172Z,10.70
2022-12-11T09:00:59.672Z,10.30
2022-12-11T09:03:27.496Z,10.68
2022-12-11T09:05:54.817Z,9.93
2022-12-11T09:08:22.255Z,10.85
2022-12-11T09:10:49.821Z,10.43
2022-12-11T09:13:17.254Z,10.48
2022-12-11T09:15:44.795Z,10.70
2022-12-11T09:18:12.156Z,10.97
2022-12-11T09:20:39.490Z,10.82
2022-12-11T09:23:06.890Z,10.52
2022-12-11T09:25:34.160Z,10.13
2022-12-11T09:28:01.514Z,10.50
2022-12-11T09:30:28.766Z,10.73
2022-12-11T09:32:56.000Z,10.13
2022-12-11T09:35:23.327Z,10.40
2022-12-11T09:37:50.724Z,10.45
2022-12-11T09:40:17.950Z,10.30
2022-12-11T09:42:51.368Z,10.67
2022-12-11T09:45:18.665Z,10.88
2022-12-11T09:47:50.203Z,9.70
2022-12-11T09:50:23.378Z,10.90
2022-12-11T09:52:50.620Z,9.75
2022-12-11T09:55:20.022Z,9.57
2022-12-11T09:58:05.635Z,10.73
2022-12-11T10:00:39.035Z,9.98
2022-12-11T10:03:27.033Z,9.15
2022-12-11T10:06:04.585Z,9.18
2022-12-11T10:08:51.205Z,9.47
2022-12-11T10:11:18.366Z,9.23
2022-12-11T10:13:57.906Z,10.20
2022-12-11T10:16:34.044Z,8.10
2022-12-11T10:19:01.581Z,9.00
2022-12-11T10:21:33.045Z,9.27
2022-12-11T10:24:01.793Z,9.00
2022-12-11T10:26:29.700Z,9.30
2022-12-11T10:29:01.243Z,9.15
2022-12-11T10:31:34.162Z,8.90
2022-12-11T10:34:02.704Z,9.17
2022-12-11T10:36:31.828Z,9.45
2022-12-11T10:38:59.886Z,8.57
2022-12-11T10:41:36.342Z,9.50
2022-12-11T10:44:15.486Z,8.20
2022-12-11T10:46:42.950Z,7.77
2022-12-11T10:49:22.143Z,8.98
2022-12-11T10:51:50.538Z,8.65
2022-12-11T10:54:32.355Z,7.85
2022-12-11T10:57:01.479Z,8.60
2022-12-11T10:59:31.783Z,7.97
2022-12-11T11:01:59.184Z,8.02
2022-12-11T11:04:47.760Z,7.63
2022-12-11T11:07:17.351Z,8.50
2022-12-11T11:09:46.086Z,7.88
2022-12-11T11:12:24.655Z,8.37
2022-12-11T11:15:01.967Z,8.00
2022-12-11T11:17:33.794Z,8.35
2022-12-11T11:20:05.772Z,7.65
2022-12-11T11:22:33.333Z,7.93
2022-12-11T11:25:00.580Z,8.33
2022-12-11T11:27:51.020Z,8.25
2022-12-11T11:30:20.187Z,7.53
2022-12-11T11:32:47.593Z,8.45
2022-12-11T11:35:14.836Z,8.45
2022-12-11T11:37:45.702Z,7.70
2022-12-11T11:40:23.633Z,7.85
2022-12-11T11:42:57.353Z,8.38
2022-12-11T11:45:32.597Z,7.85
2022-12-11T11:48:09.447Z,8.60
2022-12-11T11:50:41.701Z,7.60
2022-12-11T11:53:14.925Z,8.68
2022-12-11T11:55:53.569Z,8.77
2022-12-11T11:58:23.055Z,8.63
2022-12-11T12:00:50.598Z,8.13
2022-12-11T12:03:19.967Z,7.83
2022-12-11T12:06:01.946Z,9.48
2022-12-11T12:08:42.603Z,9.55
2022-12-11T12:11:19.037Z,8.57
2022-12-11T12:13:51.725Z,8.32
2022-12-11T12:16:55.116Z,8.77
2022-12-11T12:19:22.342Z,8.48
2022-12-11T12:21:52.073Z,9.32
2022-12-11T12:24:26.566Z,8.55
2022-12-11T12:26:57.813Z,9.27
2022-12-11T12:29:37.786Z,9.13
2022-12-11T12:32:28.517Z,8.93
2022-12-11T12:35:07.680Z,9.07
2022-12-11T12:37:46.909Z,9.07
2022-12-11T12:40:17.155Z,9.65
2022-12-11T12:43:07.490Z,9.17
2022-12-11T12:45:37.984Z,9.38
2022-12-11T12:48:05.753Z,9.65
2022-12-11T12:50:38.074Z,9.93
2022-12-11T12:53:06.783Z,10.00
2022-12-11T12:55:35.844Z,9.77
2022-12-11T12:58:05.729Z,10.07
2022-12-11T13:00:37.882Z,9.45
2022-12-11T13:03:14.659Z,10.60
2022-12-11T13:05:43.430Z,9.73
2022-12-11T13:08:11.854Z,10.33
2022-12-11T13:10:41.127Z,9.90
2022-12-11T13:13:28.255Z,10.35
2022-12-11T13:16:06.117Z,10.18
2022-12-11T13:18:38.517Z,10.10
2022-12-11T13:21:26.010Z,10.80
2022-12-11T13:23:53.481Z,9.43
2022-12-11T13:26:32.030Z,10.23
2022-12-11T13:28:59.612Z,9.95
2022-12-11T13:31:35.892Z,9.90
2022-12-11T13:34:15.579Z,10.87
2022-12-11T13:36:47.282Z,10.43
2022-12-11T13:39:19.398Z,10.77
2022-12-11T13:41:48.697Z,11.70
2022-12-11T13:44:39.700Z,10.23
2022-12-11T13:47:08.294Z,10.40
2022-12-11T13:49:37.204Z,9.40
2022-12-11T13:52:05.657Z,10.50
2022-12-11T13:54:33.815Z,9.52
2022-12-11T13:57:03.591Z,10.45
2022-12-11T13:59:36.116Z,11.00
2022-12-11T14:02:15.958Z,10.30
2022-12-11T14:04:43.593Z,10.43
2022-12-11T14:07:11.623Z,10.27
2022-12-11T14:09:40.948Z,9.80
2022-12-11T14:12:08.577Z,9.63
2022-12-11T14:14:42.031Z,10.55
2022-12-11T14:17:15.339Z,9.48
2022-12-11T14:19:47.688Z,9.68
2022-12-11T14:22:22.821Z,9.57
2022-12-11T14:24:51.696Z,9.17
2022-12-11T14:27:19.719Z,10.32
2022-12-11T14:29:47.204Z,9.90
2022-12-11T14:32:19.565Z,9.77
2022-12-11T14:34:48.256Z,11.07
2022-12-11T14:37:16.538Z,9.57
2022-12-11T14:39:52.860Z,9.98
2022-12-11T14:42:25.473Z,10.45
2022-12-11T14:44:55.435Z,10.07
2022-12-11T14:47:28.138Z,11.38
2022-12-11T14:50:04.586Z,10.63
2022-12-11T14:52:37.561Z,9.95
2022-12-11T14:55:10.525Z,10.82
2022-12-11T14:57:40.275Z,10.07
2022-12-11T15:00:08.144Z,10.25
2022-12-11T15:02:37.026Z,10.50
2022-12-11T15:05:04.262Z,11.07
2022-12-11T15:07:31.887Z,10.30
2022-12-11T15:09:59.263Z,10.07
2022-12-11T15:12:26.701Z,10.40
2022-12-11T15:14:55.418Z,10.70
2022-12-11T15:17:23.743Z,10.75
2022-12-11T15:19:52.685Z,9.52
2022-12-11T15:22:20.843Z,9.52
2022-12-11T15:24:51.338Z,10.38
2022-12-11T15:27:38.595Z,12.47
2022-12-11T15:30:29.204Z,10.88
2022-12-11T15:33:22.951Z,10.73
2022-12-11T15:36:16.588Z,11.88
2022-12-11T15:38:43.734Z,9.50
2022-12-11T15:41:15.468Z,9.70
2022-12-11T15:43:43.233Z,10.52
2022-12-11T15:46:10.614Z,10.75
2022-12-11T15:48:37.989Z,10.60
2022-12-11T15:51:05.362Z,10.10
2022-12-11T15:53:32.613Z,10.00
2022-12-11T15:56:02.427Z,10.45
2022-12-11T15:58:30.232Z,10.05
2022-12-11T16:00:57.948Z,9.77
2022-12-11T16:03:25.714Z,10.35
2022-12-11T16:05:53.860Z,10.53
2022-12-11T16:08:22.795Z,10.32
2022-12-11T16:10:51.770Z,10.93
2022-12-11T16:13:19.804Z,10.68
2022-12-11T16:15:48.286Z,9.80
2022-12-11T16:18:17.286Z,9.77
2022-12-11T16:20:45.528Z,9.95
2022-12-11T16:23:13.527Z,9.60
2022-12-11T16:25:41.498Z,9.10
2022-12-11T16:28:09.266Z,9.57
2022-12-11T16:30:37.512Z,8.67
2022-12-11T16:33:11.807Z,8.15
2022-12-11T16:35:40.292Z,8.88
2022-12-11T16:38:11.006Z,9.23
2022-12-11T16:40:38.556Z,9.50
2022-12-11T16:43:06.283Z,8.53
2022-12-11T16:45:34.001Z,8.32
2022-12-11T16:48:05.048Z,9.43
2022-12-11T16:50:32.685Z,8.63
2022-12-11T16:53:00.433Z,10.15
2022-12-11T16:55:27.905Z,9.33
2022-12-11T16:57:55.448Z,9.65
2022-12-11T17:00:23.130Z,9.50
2022-12-11T17:02:53.799Z,9.75
2022-12-11T17:05:22.701Z,8.88
2022-12-11T17:07:50.795Z,9.37
2022-12-11T17:10:18.355Z,10.27
2022-12-11T17:12:45.683Z,9.85
2022-12-11T17:15:13.408Z,9.98
2022-12-11T17:17:43.239Z,9.13
2022-12-11T17:20:11.474Z,9.70
2022-12-11T17:22:38.983Z,9.65
2022-12-11T17:25:06.348Z,9.27
2022-12-11T17:27:33.464Z,10.43
2022-12-11T17:30:00.687Z,10.05
2022-12-11T17:32:27.833Z,11.27
2022-12-11T17:34:54.985Z,10.55
2022-12-11T17:37:22.138Z,9.95
2022-12-11T17:39:49.424Z,9.15
2022-12-11T17:42:16.607Z,10.13
2022-12-11T17:44:45.577Z,9.90
2022-12-11T17:47:12.706Z,10.23
2022-12-11T17:49:40.617Z,9.68
2022-12-11T17:52:08.048Z,9.48
2022-12-11T17:54:35.262Z,9.80
2022-12-11T17:57:02.496Z,9.27
2022-12-11T17:59:29.725Z,10.50
2022-12-11T18:01:57.625Z,9.82
2022-12-11T18:04:24.943Z,10.45
2022-12-11T18:06:52.143Z,9.25
2022-12-11T18:09:19.390Z,10.00
2022-12-11T18:11:46.637Z,9.60
2022-12-11T18:14:17.206Z,9.98
2022-12-11T18:16:44.807Z,9.70
2022-12-11T18:19:11.938Z,9.48
2022-12-11T18:21:42.818Z,9.50
2022-12-11T18:24:11.052Z,9.35
2022-12-11T18:26:38.684Z,9.95
2022-12-11T18:29:06.892Z,9.32
2022-12-11T18:31:38.857Z,8.98
2022-12-11T18:34:09.387Z,9.10
2022-12-11T18:36:36.558Z,9.45
2022-12-11T18:39:03.706Z,9.95
2022-12-11T18:41:30.846Z,9.38
2022-12-11T18:43:57.999Z,9.23
2022-12-11T18:46:25.134Z,9.33
2022-12-11T18:48:52.522Z,9.52
2022-12-11T18:51:22.756Z,8.75
2022-12-11T18:53:50.055Z,8.98
2022-12-11T18:56:18.380Z,9.18
2022-12-11T18:58:46.247Z,11.33
2022-12-11T19:01:14.043Z,9.85
2022-12-11T19:03:41.460Z,10.07
2022-12-11T19:06:10.029Z,9.10
2022-12-11T19:08:37.884Z,9.32
2022-12-11T19:11:05.591Z,9.17
2022-12-11T19:13:33.038Z,12.23
2022-12-11T19:16:00.763Z,14.55
2022-12-11T19:18:28.539Z,11.75
2022-12-11T19:21:06.476Z,14.25
2022-12-11T19:23:36.042Z,11.20
2022-12-11T19:26:03.727Z,9.38
2022-12-11T19:28:31.349Z,9.85
2022-12-11T19:30:59.364Z,8.60
2022-12-11T19:33:26.787Z,9.70
2022-12-11T19:36:24.038Z,9.30
2022-12-11T19:38:51.849Z,9.45
2022-12-11T19:41:20.490Z,8.98
2022-12-11T19:43:48.072Z,8.55
2022-12-11T19:46:15.933Z,8.57
2022-12-11T19:48:43.451Z,7.37
2022-12-11T19:51:12.568Z,8.07
2022-12-11T19:53:40.260Z,9.18
2022-12-11T19:56:08.219Z,8.45
2022-12-11T19:58:35.922Z,7.80
2022-12-11T20:01:03.868Z,7.47
2022-12-11T20:03:31.523Z,7.97
2022-12-11T20:06:06.443Z,7.70
2022-12-11T20:08:49.488Z,7.78
2022-12-11T20:11:18.708Z,8.43
2022-12-11T20:13:47.639Z,8.37
2022-12-11T20:16:15.796Z,8.95
2022-12-11T20:18:43.444Z,8.32
2022-12-11T20:21:13.421Z,8.25
2022-12-11T20:23:40.829Z,8.45
2022-12-11T20:26:12.681Z,8.43
2022-12-11T20:28:40.317Z,8.10
2022-12-11T20:31:08.689Z,9.35
2022-12-11T20:33:35.921Z,9.18
2022-12-11T20:36:07.191Z,8.32
2022-12-11T20:38:34.763Z,9.47
2022-12-11T20:41:02.084Z,8.55
2022-12-11T20:43:29.357Z,8.38
2022-12-11T20:45:56.690Z,8.40
2022-12-11T20:48:24.278Z,8.13
2022-12-11T20:50:51.416Z,7.77
2022-12-11T20:53:18.613Z,8.15
2022-12-11T20:55:45.785Z,8.88
2022-12-11T20:58:12.992Z,7.95
2022-12-11T21:00:40.931Z,7.93
2022-12-11T21:03:08.209Z,8.67
2022-12-11T21:05:41.890Z,7.75
2022-12-11T21:08:10.145Z,8.45
2022-12-11T21:10:38.026Z,8.80
2022-12-11T21:13:05.614Z,8.73
2022-12-11T21:15:33.128Z,8.60
2022-12-11T21:18:00.429Z,9.25
2022-12-11T21:20:27.735Z,8.43
2022-12-11T21:22:57.655Z,8.18
2022-12-11T21:25:25.999Z,8.13
2022-12-11T21:27:53.536Z,7.90
2022-12-11T21:30:20.837Z,8.68
2022-12-11T21:32:48.104Z,7.90
2022-12-11T21:35:16.081Z,7.53
2022-12-11T21:37:43.506Z,8.45
2022-12-11T21:40:10.964Z,7.67
2022-12-11T21:42:38.255Z,8.48
2022-12-11T21:47:53.396Z,8.57
2022-12-11T21:50:21.369Z,8.55
2022-12-11T21:52:48.794Z,7.93
2022-12-11T21:55:18.246Z,9.15
2022-12-11T21:57:45.665Z,8.65
2022-12-11T22:00:13.623Z,8.38
2022-12-11T22:02:41.520Z,8.02
2022-12-11T22:05:09.456Z,8.43
2022-12-11T22:07:36.958Z,8.02
2022-12-11T22:10:05.246Z,8.48
2022-12-11T22:12:32.793Z,8.30
2022-12-11T22:15:00.329Z,8.48
2022-12-11T22:17:27.721Z,8.40
2022-12-11T22:19:55.114Z,8.15
2022-12-11T22:22:22.589Z,8.55
2022-12-11T22:24:50.869Z,8.50
2022-12-11T22:27:23.433Z,8.88
2022-12-11T22:29:51.088Z,8.40
2022-12-11T22:32:18.254Z,8.70
2022-12-11T22:34:45.443Z,8.55
2022-12-11T22:37:12.662Z,8.57
2022-12-11T22:39:39.930Z,8.50
2022-12-11T22:42:07.130Z,9.03
2022-12-11T22:44:34.375Z,9.57
2022-12-11T22:47:01.631Z,8.80
2022-12-11T22:49:29.091Z,8.30
2022-12-11T22:51:57.606Z,8.80
2022-12-11T22:54:25.302Z,8.40
2022-12-11T22:56:52.651Z,8.65
2022-12-11T22:59:20.038Z,9.85
2022-12-11T23:01:47.374Z,9.80
2022-12-11T23:04:14.679Z,9.07
2022-12-11T23:06:42.339Z,8.63
2022-12-11T23:09:09.906Z,9.38
2022-12-11T23:11:38.106Z,8.52
2022-12-11T23:14:07.279Z,8.73
2022-12-11T23:16:34.483Z,9.80
2022-12-11T23:19:01.851Z,9.67
2022-12-11T23:21:29.478Z,9.45
2022-12-11T23:23:56.810Z,9.40
2022-12-11T23:26:24.441Z,9.13
2022-12-11T23:28:51.586Z,9.10
2022-12-11T23:31:18.857Z,9.03
2022-12-11T23:33:46.233Z,9.60
2022-12-11T23:36:13.752Z,10.05
2022-12-11T23:38:41.496Z,9.05
2022-12-11T23:41:09.868Z,9.20
2022-12-11T23:43:38.582Z,8.03
2022-12-11T23:46:07.835Z,9.00
2022-12-11T23:48:35.074Z,9.20
2022-12-11T23:51:02.704Z,9.23
2022-12-11T23:53:29.810Z,9.93
2022-12-11T23:55:57.286Z,8.80
2022-12-11T23:58:24.383Z,9.32
